createdAt,value
2023-03-04T00:02:20.110Z,102043.00
2023-03-04T00:04:49.588Z,102054.56
2023-03-04T00:07:20.149Z,102044.69
2023-03-04T00:09:49.255Z,102039.34
2023-03-04T00:12:19.179Z,102041.94
2023-03-04T00:14:52.563Z,102047.47
2023-03-04T00:17:25.525Z,102051.78
2023-03-04T00:19:57.329Z,102054.56
2023-03-04T00:22:26.437Z,102049.22
2023-03-04T00:24:57.733Z,102051.88
2023-03-04T00:27:27.251Z,102047.75
2023-03-04T00:30:01.071Z,102054.75
2023-03-04T00:32:30.616Z,102052.91
2023-03-04T00:34:58.890Z,102054.75
2023-03-04T00:37:27.007Z,102061.88
2023-03-04T00:39:55.059Z,102061.97
2023-03-04T00:42:23.337Z,102067.34
2023-03-04T00:44:52.220Z,102065.63
2023-03-04T00:47:21.922Z,102065.63
2023-03-04T00:49:49.976Z,102069.91
2023-03-04T00:52:18.110Z,102061.22
2023-03-04T00:54:46.189Z,102061.31
2023-03-04T00:57:14.597Z,102056.81
2023-03-04T00:59:43.923Z,102065.63
2023-03-04T01:02:12.215Z,102057.75
2023-03-04T01:04:41.963Z,102055.06
2023-03-04T01:07:10.203Z,102061.41
2023-03-04T01:09:38.826Z,102060.63
2023-03-04T01:12:07.022Z,102059.56
2023-03-04T01:14:35.043Z,102064.09
2023-03-04T01:17:03.353Z,102063.91
2023-03-04T01:19:31.534Z,102062.97
2023-03-04T01:22:02.128Z,102071.00
2023-03-04T01:24:30.514Z,102071.00
2023-03-04T01:26:58.589Z,102069.16
2023-03-04T01:29:28.134Z,102067.34
2023-03-04T01:31:58.269Z,102063.72
2023-03-04T01:34:26.594Z,102071.84
2023-03-04T01:36:54.712Z,102068.22
2023-03-04T01:39:24.314Z,102075.22
2023-03-04T01:41:52.789Z,102073.47
2023-03-04T01:44:21.218Z,102078.75
2023-03-04T01:46:50.895Z,102084.94
2023-03-04T01:49:19.107Z,102072.53
2023-03-04T01:51:49.662Z,102077.91
2023-03-04T01:54:17.911Z,102067.34
2023-03-04T01:56:49.381Z,102071.00
2023-03-04T01:59:20.567Z,102065.63
2023-03-04T02:01:49.486Z,102063.91
2023-03-04T02:04:18.816Z,102064.09
2023-03-04T02:06:47.788Z,102058.72
2023-03-04T02:09:16.381Z,102060.44
2023-03-04T02:11:45.623Z,102062.16
2023-03-04T02:14:16.507Z,102062.16
2023-03-04T02:16:45.581Z,102061.31
2023-03-04T02:19:15.740Z,102059.56
2023-03-04T02:21:43.888Z,102061.31
2023-03-04T02:24:16.853Z,102062.16
2023-03-04T02:26:47.162Z,102061.22
2023-03-04T02:29:16.943Z,102067.44
2023-03-04T02:31:45.984Z,102055.88
2023-03-04T02:34:15.614Z,102062.97
2023-03-04T02:36:44.516Z,102060.44
2023-03-04T02:39:14.445Z,102066.75
2023-03-04T02:41:44.516Z,102053.56
2023-03-04T02:44:18.995Z,102050.00
2023-03-04T02:46:47.632Z,102055.25
2023-03-04T02:49:15.980Z,102048.22
2023-03-04T02:51:44.200Z,102047.22
2023-03-04T02:54:16.230Z,102039.38
2023-03-04T02:56:48.223Z,102046.56
2023-03-04T02:59:18.981Z,102041.97
2023-03-04T03:01:47.455Z,102044.66
2023-03-04T03:04:15.899Z,102044.56
2023-03-04T03:06:46.296Z,102044.56
2023-03-04T03:09:14.563Z,102046.28
2023-03-04T03:11:43.268Z,102042.66
2023-03-04T03:14:11.409Z,102047.13
2023-03-04T03:16:41.318Z,102041.97
2023-03-04T03:19:09.461Z,102037.50
2023-03-04T03:21:38.273Z,102028.59
2023-03-04T03:24:06.729Z,102037.50
2023-03-04T03:26:35.182Z,102033.84
2023-03-04T03:29:03.264Z,102025.91
2023-03-04T03:31:31.420Z,102025.25
2023-03-04T03:34:01.133Z,102025.25
2023-03-04T03:36:29.801Z,102016.50
2023-03-04T03:38:58.402Z,102020.06
2023-03-04T03:41:26.651Z,102018.34
2023-03-04T03:43:54.966Z,102016.78
2023-03-04T03:46:22.996Z,102015.06
2023-03-04T03:48:51.058Z,102013.50
2023-03-04T03:51:20.628Z,102019.03
2023-03-04T03:53:48.661Z,102020.75
2023-03-04T03:56:16.854Z,102025.94
2023-03-04T03:58:44.998Z,102027.56
2023-03-04T04:01:13.173Z,102024.06
2023-03-04T04:03:41.470Z,102022.31
2023-03-04T04:06:09.540Z,102022.50
2023-03-04T04:08:39.125Z,102029.41
2023-03-04T04:11:07.281Z,102023.06
2023-03-04T04:13:36.507Z,102022.31
2023-03-04T04:16:06.901Z,102018.69
2023-03-04T04:18:35.102Z,102020.59
2023-03-04T04:21:03.612Z,102024.19
2023-03-04T04:23:31.790Z,102021.53
2023-03-04T04:26:01.335Z,102025.09
2023-03-04T04:28:29.528Z,102024.38
2023-03-04T04:30:57.657Z,102023.53
2023-03-04T04:33:25.775Z,102019.22
2023-03-04T04:35:54.630Z,102018.34
2023-03-04T04:38:22.641Z,102021.78
2023-03-04T04:40:50.746Z,102022.75
2023-03-04T04:43:20.197Z,102021.78
2023-03-04T04:45:48.280Z,102025.31
2023-03-04T04:48:16.419Z,102030.00
2023-03-04T04:50:44.529Z,102016.72
2023-03-04T04:53:13.771Z,102021.28
2023-03-04T04:55:41.865Z,102011.63
2023-03-04T04:58:09.997Z,102016.19
2023-03-04T05:00:39.557Z,102009.03
2023-03-04T05:03:07.689Z,102015.53
2023-03-04T05:05:36.117Z,102009.19
2023-03-04T05:08:04.140Z,102007.50
2023-03-04T05:10:32.277Z,102012.84
2023-03-04T05:13:00.414Z,102014.72
2023-03-04T05:15:28.655Z,102018.28
2023-03-04T05:17:58.553Z,102018.19
2023-03-04T05:20:27.302Z,102019.13
2023-03-04T05:22:55.427Z,102019.41
2023-03-04T05:25:23.594Z,102025.41
2023-03-04T05:27:51.521Z,102022.75
2023-03-04T05:30:19.872Z,102028.09
2023-03-04T05:32:48.197Z,102034.25
2023-03-04T05:35:17.793Z,102037.00
2023-03-04T05:37:45.961Z,102040.63
2023-03-04T05:40:14.545Z,102034.25
2023-03-04T05:42:42.745Z,102044.75
2023-03-04T05:45:11.096Z,102043.22
2023-03-04T05:47:39.339Z,102038.72
2023-03-04T05:50:08.214Z,102047.72
2023-03-04T05:52:37.775Z,102047.63
2023-03-04T05:55:06.546Z,102040.44
2023-03-04T05:57:34.664Z,102041.38
2023-03-04T06:00:02.788Z,102043.03
2023-03-04T06:02:40.905Z,102043.22
2023-03-04T06:05:10.157Z,102042.41
2023-03-04T06:07:39.790Z,102040.28
2023-03-04T06:10:08.485Z,102037.41
2023-03-04T06:12:36.693Z,102040.34
2023-03-04T06:15:06.196Z,102034.91
2023-03-04T06:17:34.546Z,102040.09
2023-03-04T06:20:02.954Z,102033.00
2023-03-04T06:22:31.032Z,102034.91
2023-03-04T06:25:00.561Z,102026.81
2023-03-04T06:27:29.024Z,102033.97
2023-03-04T06:29:57.313Z,102033.19
2023-03-04T06:32:25.813Z,102029.41
2023-03-04T06:34:53.867Z,102028.72
2023-03-04T06:37:21.937Z,102029.75
2023-03-04T06:39:50.380Z,102027.84
2023-03-04T06:42:20.110Z,102031.47
2023-03-04T06:44:49.597Z,102033.19
2023-03-04T06:47:18.946Z,102033.19
2023-03-04T06:49:47.234Z,102032.34
2023-03-04T06:52:15.432Z,102026.19
2023-03-04T06:54:43.730Z,102030.59
2023-03-04T06:57:11.829Z,102032.41
2023-03-04T06:59:41.642Z,102029.75
2023-03-04T07:02:11.774Z,102022.66
2023-03-04T07:04:40.261Z,102020.34
2023-03-04T07:07:08.915Z,102021.81
2023-03-04T07:09:37.018Z,102030.69
2023-03-04T07:12:05.722Z,102033.53
2023-03-04T07:14:33.862Z,102034.38
2023-03-04T07:17:03.498Z,102032.69
2023-03-04T07:19:32.225Z,102039.72
2023-03-04T07:22:00.358Z,102036.47
2023-03-04T07:24:29.145Z,102038.78
2023-03-04T07:26:57.198Z,102044.84
2023-03-04T07:29:25.368Z,102044.06
2023-03-04T07:31:54.021Z,102047.84
2023-03-04T07:34:23.650Z,102046.72
2023-03-04T07:36:51.768Z,102044.84
2023-03-04T07:39:19.871Z,102042.19
2023-03-04T07:41:48.184Z,102039.50
2023-03-04T07:44:16.443Z,102046.72
2023-03-04T07:46:44.576Z,102045.78
2023-03-04T07:49:13.193Z,102049.59
2023-03-04T07:51:42.896Z,102050.59
2023-03-04T07:54:11.570Z,102051.22
2023-03-04T07:56:39.981Z,102059.06
2023-03-04T07:59:08.462Z,102066.16
2023-03-04T08:01:37.496Z,102068.22
2023-03-04T08:04:06.772Z,102067.19
2023-03-04T08:06:35.147Z,102071.44
2023-03-04T08:09:05.818Z,102075.75
2023-03-04T08:11:34.448Z,102072.09
2023-03-04T08:14:03.022Z,102066.84
2023-03-04T08:16:31.694Z,102069.59
2023-03-04T08:19:01.875Z,102072.19
2023-03-04T08:21:30.254Z,102072.19
2023-03-04T08:23:59.387Z,102075.66
2023-03-04T08:26:29.897Z,102073.94
2023-03-04T08:28:58.389Z,102073.75
2023-03-04T08:31:26.614Z,102068.22
2023-03-04T08:33:55.330Z,102071.69
2023-03-04T08:36:23.393Z,102073.25
2023-03-04T08:38:51.855Z,102071.34
2023-03-04T08:41:20.566Z,102069.78
2023-03-04T08:43:50.218Z,102074.97
2023-03-04T08:46:18.571Z,102068.66
2023-03-04T08:48:46.797Z,102071.16
2023-03-04T08:51:17.118Z,102073.75
2023-03-04T08:53:45.382Z,102067.53
2023-03-04T08:56:17.073Z,102070.03
2023-03-04T08:58:45.474Z,102072.63
2023-03-04T09:01:15.600Z,102070.91
2023-03-04T09:03:44.249Z,102072.22
2023-03-04T09:06:14.900Z,102073.91
2023-03-04T09:08:43.308Z,102066.59
2023-03-04T09:11:11.799Z,102069.38
2023-03-04T09:13:40.118Z,102069.94
2023-03-04T09:16:10.714Z,102069.75
2023-03-04T09:18:40.625Z,102070.75
2023-03-04T09:21:09.550Z,102072.38
2023-03-04T09:23:38.434Z,102070.56
2023-03-04T09:26:15.242Z,102067.69
2023-03-04T09:28:43.577Z,102066.50
2023-03-04T09:31:14.820Z,102070.91
2023-03-04T09:33:44.503Z,102058.38
2023-03-04T09:36:13.383Z,102055.16
2023-03-04T09:38:42.175Z,102056.47
2023-03-04T09:41:11.279Z,102054.75
2023-03-04T09:43:40.877Z,102050.94
2023-03-04T09:46:11.700Z,102046.53
2023-03-04T09:48:44.893Z,102041.94
2023-03-04T09:51:20.476Z,102045.22
2023-03-04T09:53:51.176Z,102040.56
2023-03-04T09:56:19.220Z,102044.09
2023-03-04T09:58:52.706Z,102033.97
2023-03-04T10:01:24.073Z,102028.25
2023-03-04T10:03:54.560Z,102029.78
2023-03-04T10:06:25.041Z,102029.78
2023-03-04T10:08:56.785Z,102021.75
2023-03-04T10:11:27.495Z,102027.59
2023-03-04T10:13:58.886Z,102033.03
2023-03-04T10:16:30.813Z,102024.75
2023-03-04T10:19:03.454Z,102024.38
2023-03-04T10:21:34.486Z,102016.06
2023-03-04T10:24:04.091Z,102021.41
2023-03-04T10:26:33.692Z,102021.22
2023-03-04T10:29:07.086Z,102025.03
2023-03-04T10:31:36.818Z,102022.75
2023-03-04T10:34:05.499Z,102026.56
2023-03-04T10:36:51.964Z,102028.13
2023-03-04T10:39:23.496Z,102022.38
2023-03-04T10:42:00.215Z,102029.47
2023-03-04T10:44:28.876Z,102020.28
2023-03-04T10:46:58.268Z,102019.16
2023-03-04T10:49:27.022Z,102022.59
2023-03-04T10:51:57.643Z,102025.47
2023-03-04T10:54:29.200Z,102030.47
2023-03-04T10:57:00.327Z,102036.78
2023-03-04T10:59:33.126Z,102029.88
2023-03-04T11:02:02.265Z,102026.25
2023-03-04T11:04:35.359Z,102026.03
2023-03-04T11:07:03.861Z,102028.25
2023-03-04T11:09:33.679Z,102027.56
2023-03-04T11:12:03.147Z,102025.19
2023-03-04T11:14:35.990Z,102024.13
2023-03-04T11:17:17.003Z,102025.09
2023-03-04T11:19:48.327Z,102020.09
2023-03-04T11:22:17.548Z,102013.00
2023-03-04T11:24:49.301Z,102014.25
2023-03-04T11:27:21.486Z,102007.84
2023-03-04T11:29:53.602Z,102011.94
2023-03-04T11:32:23.939Z,102004.44
2023-03-04T11:34:54.392Z,101997.81
2023-03-04T11:37:24.163Z,102000.28
2023-03-04T11:39:56.332Z,101996.25
2023-03-04T11:42:33.100Z,101993.66
2023-03-04T11:45:01.269Z,101991.56
2023-03-04T11:47:40.663Z,101989.66
2023-03-04T11:50:20.966Z,101989.66
2023-03-04T11:53:00.608Z,101987.28
2023-03-04T11:55:35.846Z,101981.16
2023-03-04T11:58:15.078Z,101972.16
2023-03-04T12:00:47.804Z,101971.72
2023-03-04T12:03:23.759Z,101970.56
2023-03-04T12:05:56.455Z,101971.13
2023-03-04T12:08:44.634Z,101969.66
2023-03-04T12:11:19.429Z,101973.19
2023-03-04T12:13:53.852Z,101971.25
2023-03-04T12:16:28.251Z,101960.59
2023-03-04T12:19:04.874Z,101961.72
2023-03-04T12:21:43.161Z,101962.13
2023-03-04T12:24:25.618Z,101956.63
2023-03-04T12:26:56.670Z,101957.69
2023-03-04T12:29:31.288Z,101950.75
2023-03-04T12:32:04.858Z,101950.44
2023-03-04T12:34:54.411Z,101951.41
2023-03-04T12:37:44.221Z,101947.88
2023-03-04T12:40:25.186Z,101940.63
2023-03-04T12:43:02.228Z,101936.88
2023-03-04T12:45:33.609Z,101926.34
2023-03-04T12:48:05.256Z,101923.78
2023-03-04T12:50:38.672Z,101922.56
2023-03-04T12:53:13.962Z,101908.03
2023-03-04T12:55:44.109Z,101910.19
2023-03-04T12:58:16.766Z,101909.31
2023-03-04T13:00:50.465Z,101909.78
2023-03-04T13:03:22.585Z,101908.38
2023-03-04T13:05:58.375Z,101897.19
2023-03-04T13:08:31.319Z,101896.66
2023-03-04T13:11:02.672Z,101895.47
2023-03-04T13:13:38.010Z,101884.94
2023-03-04T13:16:07.263Z,101885.47
2023-03-04T13:18:36.778Z,101888.69
2023-03-04T13:21:23.245Z,101880.75
2023-03-04T13:23:52.464Z,101874.28
2023-03-04T13:26:30.979Z,101872.34
2023-03-04T13:29:29.377Z,101862.22
2023-03-04T13:32:02.909Z,101859.53
2023-03-04T13:34:46.138Z,101858.69
2023-03-04T13:37:36.544Z,101857.19
2023-03-04T13:40:28.368Z,101859.47
2023-03-04T13:43:16.282Z,101854.69
2023-03-04T13:45:45.280Z,101860.53
2023-03-04T13:48:25.380Z,101855.16
2023-03-04T13:50:54.228Z,101855.66
2023-03-04T13:53:31.672Z,101856.19
2023-03-04T13:56:08.498Z,101842.53
2023-03-04T13:58:37.284Z,101840.69
2023-03-04T14:01:07.290Z,101840.03
2023-03-04T14:03:36.933Z,101838.94
2023-03-04T14:06:12.474Z,101836.13
2023-03-04T14:08:40.703Z,101835.25
2023-03-04T14:11:13.189Z,101828.63
2023-03-04T14:13:41.507Z,101820.22
2023-03-04T14:16:10.476Z,101820.34
2023-03-04T14:18:40.222Z,101817.25
2023-03-04T14:21:08.406Z,101814.66
2023-03-04T14:23:37.293Z,101810.59
2023-03-04T14:26:10.797Z,101812.94
2023-03-04T14:28:46.483Z,101810.25
2023-03-04T14:31:19.418Z,101802.66
2023-03-04T14:33:50.417Z,101811.44
2023-03-04T14:36:20.952Z,101813.72
2023-03-04T14:38:54.117Z,101815.41
2023-03-04T14:41:24.233Z,101814.44
2023-03-04T14:43:55.982Z,101816.28
2023-03-04T14:46:26.766Z,101818.75
2023-03-04T14:48:57.858Z,101816.41
2023-03-04T14:51:33.937Z,101821.00
2023-03-04T14:54:02.105Z,101812.72
2023-03-04T14:56:30.760Z,101808.41
2023-03-04T14:59:00.166Z,101808.56
2023-03-04T15:01:32.712Z,101804.66
2023-03-04T15:04:03.876Z,101811.16
2023-03-04T15:06:33.475Z,101801.06
2023-03-04T15:09:03.625Z,101799.13
2023-03-04T15:11:33.986Z,101799.09
2023-03-04T15:14:02.855Z,101790.28
2023-03-04T15:16:51.052Z,101794.81
2023-03-04T15:19:27.450Z,101797.81
2023-03-04T15:22:04.922Z,101791.16
2023-03-04T15:24:33.164Z,101791.03
2023-03-04T15:27:01.216Z,101786.75
2023-03-04T15:29:30.418Z,101791.81
2023-03-04T15:31:58.583Z,101790.97
2023-03-04T15:34:28.496Z,101786.88
2023-03-04T15:36:58.291Z,101781.81
2023-03-04T15:39:27.754Z,101783.19
2023-03-04T15:41:56.043Z,101772.56
2023-03-04T15:44:24.307Z,101771.94
2023-03-04T15:46:52.453Z,101765.19
2023-03-04T15:49:20.729Z,101764.84
2023-03-04T15:51:51.014Z,101764.94
2023-03-04T15:54:19.096Z,101768.22
2023-03-04T15:56:47.218Z,101755.94
2023-03-04T15:59:17.093Z,101767.97
2023-03-04T16:01:46.738Z,101764.00
2023-03-04T16:04:16.945Z,101756.13
2023-03-04T16:06:45.589Z,101752.81
2023-03-04T16:09:17.072Z,101744.97
2023-03-04T16:11:47.667Z,101741.34
2023-03-04T16:14:16.903Z,101744.09
2023-03-04T16:16:47.144Z,101749.69
2023-03-04T16:19:16.206Z,101747.09
2023-03-04T16:21:44.294Z,101741.97
2023-03-04T16:24:17.584Z,101740.47
2023-03-04T16:26:45.918Z,101742.09
2023-03-04T16:29:14.178Z,101731.44
2023-03-04T16:31:42.455Z,101737.78
2023-03-04T16:34:10.791Z,101739.84
2023-03-04T16:36:38.983Z,101741.53
2023-03-04T16:39:09.508Z,101744.13
2023-03-04T16:41:39.112Z,101738.13
2023-03-04T16:44:09.260Z,101737.16
2023-03-04T16:46:37.516Z,101730.59
2023-03-04T16:49:05.787Z,101743.03
2023-03-04T16:51:35.619Z,101739.41
2023-03-04T16:54:03.938Z,101743.03
2023-03-04T16:56:32.071Z,101744.09
2023-03-04T16:59:01.681Z,101741.75
2023-03-04T17:01:30.331Z,101751.19
2023-03-04T17:03:58.390Z,101743.03
2023-03-04T17:06:28.067Z,101743.56
2023-03-04T17:08:56.158Z,101742.06
2023-03-04T17:11:25.070Z,101737.88
2023-03-04T17:13:53.471Z,101740.56
2023-03-04T17:16:23.055Z,101732.72
2023-03-04T17:18:51.291Z,101738.09
2023-03-04T17:21:20.143Z,101741.81
2023-03-04T17:23:48.222Z,101737.00
2023-03-04T17:26:16.871Z,101742.13
2023-03-04T17:28:45.042Z,101738.63
2023-03-04T17:31:13.782Z,101742.47
2023-03-04T17:33:43.929Z,101738.84
2023-03-04T17:36:12.876Z,101735.63
2023-03-04T17:38:41.149Z,101741.72
2023-03-04T17:41:10.066Z,101742.13
2023-03-04T17:43:38.482Z,101743.69
2023-03-04T17:46:07.335Z,101745.63
2023-03-04T17:48:35.789Z,101743.88
2023-03-04T17:51:05.417Z,101735.59
2023-03-04T17:53:33.646Z,101737.63
2023-03-04T17:56:03.117Z,101730.75
2023-03-04T17:58:32.456Z,101729.31
2023-03-04T18:01:05.925Z,101736.59
2023-03-04T18:03:34.363Z,101738.81
2023-03-04T18:06:02.548Z,101731.09
2023-03-04T18:08:32.110Z,101737.69
2023-03-04T18:11:00.144Z,101735.38
2023-03-04T18:13:28.395Z,101738.25
2023-03-04T18:15:56.877Z,101736.56
2023-03-04T18:18:25.206Z,101741.53
2023-03-04T18:20:58.215Z,101738.06
2023-03-04T18:23:26.815Z,101739.41
2023-03-04T18:25:56.538Z,101740.56
2023-03-04T18:28:25.155Z,101734.25
2023-03-04T18:30:53.635Z,101737.25
2023-03-04T18:33:22.312Z,101745.16
2023-03-04T18:35:50.457Z,101741.91
2023-03-04T18:38:18.900Z,101749.19
2023-03-04T18:40:46.916Z,101731.41
2023-03-04T18:43:16.914Z,101736.84
2023-03-04T18:45:46.454Z,101724.72
2023-03-04T18:48:14.666Z,101728.72
2023-03-04T18:50:43.162Z,101727.69
2023-03-04T18:53:11.832Z,101735.00
2023-03-04T18:55:39.937Z,101730.06
2023-03-04T18:58:08.046Z,101740.16
2023-03-04T19:00:37.818Z,101736.72
2023-03-04T19:03:07.594Z,101733.97
2023-03-04T19:05:36.189Z,101727.97
2023-03-04T19:08:05.126Z,101730.97
2023-03-04T19:10:33.521Z,101726.78
2023-03-04T19:13:02.244Z,101724.19
2023-03-04T19:15:30.604Z,101723.34
2023-03-04T19:18:00.663Z,101718.59
2023-03-04T19:20:28.753Z,101722.31
2023-03-04T19:22:57.080Z,101719.53
2023-03-04T19:25:25.089Z,101718.84
2023-03-04T19:27:55.457Z,101720.06
2023-03-04T19:30:23.717Z,101719.41
2023-03-04T19:32:51.905Z,101723.34
2023-03-04T19:35:21.665Z,101710.91
2023-03-04T19:37:49.757Z,101705.56
2023-03-04T19:40:17.906Z,101707.50
2023-03-04T19:42:46.229Z,101709.97
2023-03-04T19:45:14.672Z,101699.19
2023-03-04T19:47:42.796Z,101706.25
2023-03-04T19:50:12.166Z,101705.56
2023-03-04T19:52:41.729Z,101705.38
2023-03-04T19:55:10.400Z,101696.78
2023-03-04T19:57:38.569Z,101710.91
2023-03-04T20:00:07.331Z,101709.22
2023-03-04T20:02:35.610Z,101704.41
2023-03-04T20:05:03.747Z,101706.03
2023-03-04T20:07:32.172Z,101702.44
2023-03-04T20:10:01.733Z,101706.13
2023-03-04T20:12:31.389Z,101700.78
2023-03-04T20:14:59.521Z,101699.81
2023-03-04T20:17:27.651Z,101706.13
2023-03-04T20:19:55.778Z,101711.50
2023-03-04T20:22:23.769Z,101707.84
2023-03-04T20:24:53.790Z,101706.34
2023-03-04T20:27:23.530Z,101711.28
2023-03-04T20:29:51.907Z,101709.47
2023-03-04T20:32:19.964Z,101705.00
2023-03-04T20:34:49.597Z,101705.25
2023-03-04T20:37:17.809Z,101693.63
2023-03-04T20:39:46.661Z,101698.03
2023-03-04T20:42:18.445Z,101700.59
2023-03-04T20:44:47.978Z,101697.34
2023-03-04T20:47:16.106Z,101700.78
2023-03-04T20:49:44.774Z,101696.41
2023-03-04T20:52:12.826Z,101692.00
2023-03-04T20:54:40.950Z,101689.59
2023-03-04T20:57:10.793Z,101686.19
2023-03-04T20:59:39.673Z,101688.16
2023-03-04T21:02:10.177Z,101676.53
2023-03-04T21:04:38.523Z,101672.22
2023-03-04T21:07:06.670Z,101677.66
2023-03-04T21:09:36.516Z,101669.81
2023-03-04T21:12:06.511Z,101675.53
2023-03-04T21:14:36.796Z,101665.91
2023-03-04T21:17:06.494Z,101663.97
2023-03-04T21:19:37.804Z,101665.03
2023-03-04T21:22:06.109Z,101663.13
2023-03-04T21:24:35.189Z,101660.38
2023-03-04T21:27:04.679Z,101665.03
2023-03-04T21:29:33.428Z,101663.13
2023-03-04T21:32:13.303Z,101652.63
2023-03-04T21:34:52.983Z,101650.53
2023-03-04T21:37:21.484Z,101648.63
2023-03-04T21:39:49.644Z,101651.13
2023-03-04T21:42:17.817Z,101639.47
2023-03-04T21:44:49.722Z,101636.13
2023-03-04T21:47:18.391Z,101628.94
2023-03-04T21:49:46.742Z,101614.84
2023-03-04T21:52:16.404Z,101621.31
2023-03-04T21:54:44.773Z,101624.28
2023-03-04T21:57:13.659Z,101619.22
2023-03-04T21:59:41.880Z,101607.66
2023-03-04T22:02:14.962Z,101603.34
2023-03-04T22:04:43.085Z,101611.19
2023-03-04T22:07:11.407Z,101610.22
2023-03-04T22:09:41.187Z,101611.00
2023-03-04T22:12:09.451Z,101613.59
2023-03-04T22:14:37.744Z,101611.75
2023-03-04T22:17:05.915Z,101612.56
2023-03-04T22:19:34.323Z,101611.56
2023-03-04T22:22:02.634Z,101616.91
2023-03-04T22:24:30.733Z,101614.16
2023-03-04T22:27:00.674Z,101610.53
2023-03-04T22:29:28.801Z,101609.88
2023-03-04T22:31:57.123Z,101609.69
2023-03-04T22:34:25.572Z,101612.34
2023-03-04T22:36:53.752Z,101615.88
2023-03-04T22:39:23.255Z,101608.72
2023-03-04T22:41:51.625Z,101606.03
2023-03-04T22:44:21.212Z,101608.72
2023-03-04T22:46:49.455Z,101606.22
2023-03-04T22:49:17.653Z,101607.84
2023-03-04T22:51:46.261Z,101608.69
2023-03-04T22:54:14.512Z,101612.16
2023-03-04T22:56:42.630Z,101613.28
2023-03-04T22:59:10.733Z,101614.03
2023-03-04T23:01:40.212Z,101609.56
2023-03-04T23:04:08.556Z,101602.41
2023-03-04T23:06:37.863Z,101606.81
2023-03-04T23:09:06.287Z,101609.56
2023-03-04T23:11:36.613Z,101601.47
2023-03-04T23:14:07.148Z,101592.50
2023-03-04T23:16:37.474Z,101594.19
2023-03-04T23:19:07.573Z,101595.06
2023-03-04T23:21:36.617Z,101590.56
2023-03-04T23:24:06.001Z,101587.16
2023-03-04T23:26:35.216Z,101574.75
2023-03-04T23:29:04.251Z,101571.13
2023-03-04T23:31:32.774Z,101571.28
2023-03-04T23:34:01.685Z,101563.16
2023-03-04T23:36:32.585Z,101565.78
2023-03-04T23:39:01.476Z,101560.50
2023-03-04T23:41:30.741Z,101560.44
2023-03-04T23:43:59.599Z,101550.78
2023-03-04T23:46:28.647Z,101548.97
2023-03-04T23:48:57.398Z,101554.31
2023-03-04T23:51:26.848Z,101560.78
2023-03-04T23:53:57.004Z,101557.56
2023-03-04T23:56:26.537Z,101544.94
2023-03-04T23:58:55.595Z,101548.56
